sensor_id;sensor_type;location;lat;lon;timestamp;pressure;altitude;pressure_sealevel;temperature;humidity
70684;BME280;58263;48.146;11.440;2023-06-19T00:00:36;95380.69;;;20.73;46.29
70684;BME280;58263;48.146;11.440;2023-06-19T00:03:02;95378.41;;;20.61;47.03
70684;BME280;58263;48.146;11.440;2023-06-19T00:05:28;95376.63;;;20.56;46.56
70684;BME280;58263;48.146;11.440;2023-06-19T00:07:53;95375.78;;;20.56;47.27
70684;BME280;58263;48.146;11.440;2023-06-19T00:10:19;95374.19;;;20.55;46.73
70684;BME280;58263;48.146;11.440;2023-06-19T00:12:44;95369.94;;;20.49;46.84
70684;BME280;58263;48.146;11.440;2023-06-19T00:15:10;95376.31;;;20.58;46.84
70684;BME280;58263;48.146;11.440;2023-06-19T00:17:35;95368.22;;;20.53;46.95
70684;BME280;58263;48.146;11.440;2023-06-19T00:20:03;95370.97;;;20.53;46.21
70684;BME280;58263;48.146;11.440;2023-06-19T00:22:28;95369.53;;;20.55;46.90
70684;BME280;58263;48.146;11.440;2023-06-19T00:24:54;95370.56;;;20.59;45.90
70684;BME280;58263;48.146;11.440;2023-06-19T00:27:19;95373.28;;;20.59;46.02
70684;BME280;58263;48.146;11.440;2023-06-19T00:29:44;95368.63;;;20.60;46.16
70684;BME280;58263;48.146;11.440;2023-06-19T00:32:09;95372.19;;;20.60;46.05
70684;BME280;58263;48.146;11.440;2023-06-19T00:34:35;95375.59;;;20.66;45.98
70684;BME280;58263;48.146;11.440;2023-06-19T00:37:02;95368.84;;;20.64;45.63
70684;BME280;58263;48.146;11.440;2023-06-19T00:39:28;95377.00;;;20.64;46.32
70684;BME280;58263;48.146;11.440;2023-06-19T00:41:54;95369.34;;;20.66;46.14
70684;BME280;58263;48.146;11.440;2023-06-19T00:44:20;95380.25;;;20.66;46.52
70684;BME280;58263;48.146;11.440;2023-06-19T00:46:46;95382.28;;;20.74;45.15
70684;BME280;58263;48.146;11.440;2023-06-19T00:49:11;95383.47;;;20.68;46.44
70684;BME280;58263;48.146;11.440;2023-06-19T00:51:37;95377.00;;;20.64;46.07
70684;BME280;58263;48.146;11.440;2023-06-19T00:54:03;95388.13;;;20.67;45.54
70684;BME280;58263;48.146;11.440;2023-06-19T00:56:29;95382.47;;;20.64;45.70
70684;BME280;58263;48.146;11.440;2023-06-19T00:58:55;95389.53;;;20.65;46.56
70684;BME280;58263;48.146;11.440;2023-06-19T01:01:21;95385.81;;;20.60;46.09
70684;BME280;58263;48.146;11.440;2023-06-19T01:03:46;95387.91;;;20.64;46.07
70684;BME280;58263;48.146;11.440;2023-06-19T01:06:23;95387.28;;;20.67;46.10
70684;BME280;58263;48.146;11.440;2023-06-19T01:08:56;95396.03;;;20.69;46.41
70684;BME280;58263;48.146;11.440;2023-06-19T01:11:28;95394.91;;;20.70;45.67
70684;BME280;58263;48.146;11.440;2023-06-19T01:13:58;95389.53;;;20.65;46.35
70684;BME280;58263;48.146;11.440;2023-06-19T01:16:26;95393.38;;;20.64;47.02
70684;BME280;58263;48.146;11.440;2023-06-19T01:18:53;95394.97;;;20.65;46.09
70684;BME280;58263;48.146;11.440;2023-06-19T01:21:19;95391.25;;;20.60;46.62
70684;BME280;58263;48.146;11.440;2023-06-19T01:23:44;95394.78;;;20.61;47.03
70684;BME280;58263;48.146;11.440;2023-06-19T01:26:11;95397.19;;;20.63;46.28
70684;BME280;58263;48.146;11.440;2023-06-19T01:28:39;95396.59;;;20.66;46.51
70684;BME280;58263;48.146;11.440;2023-06-19T01:31:11;95397.66;;;20.70;46.18
70684;BME280;58263;48.146;11.440;2023-06-19T01:33:38;95392.03;;;20.61;47.43
70684;BME280;58263;48.146;11.440;2023-06-19T01:36:06;95398.81;;;20.64;47.89
70684;BME280;58263;48.146;11.440;2023-06-19T01:38:33;95400.44;;;20.65;47.17
70684;BME280;58263;48.146;11.440;2023-06-19T01:41:00;95390.34;;;20.65;46.26
70684;BME280;58263;48.146;11.440;2023-06-19T01:43:27;95387.91;;;20.64;46.94
70684;BME280;58263;48.146;11.440;2023-06-19T01:45:52;95397.72;;;20.65;46.51
70684;BME280;58263;48.146;11.440;2023-06-19T01:48:18;95388.53;;;20.60;46.53
70684;BME280;58263;48.146;11.440;2023-06-19T01:50:47;95391.75;;;20.63;46.30
70684;BME280;58263;48.146;11.440;2023-06-19T01:53:13;95393.56;;;20.67;46.35
70684;BME280;58263;48.146;11.440;2023-06-19T01:55:39;95396.03;;;20.69;46.05
70684;BME280;58263;48.146;11.440;2023-06-19T01:58:04;95394.38;;;20.68;45.45
70684;BME280;58263;48.146;11.440;2023-06-19T02:00:29;95396.31;;;20.67;45.94
70684;BME280;58263;48.146;11.440;2023-06-19T02:02:55;95396.88;;;20.64;46.50
70684;BME280;58263;48.146;11.440;2023-06-19T02:05:21;95394.91;;;20.70;46.44
70684;BME280;58263;48.146;11.440;2023-06-19T02:07:46;95392.88;;;20.62;46.47
70684;BME280;58263;48.146;11.440;2023-06-19T02:10:12;95384.50;;;20.58;46.00
70684;BME280;58263;48.146;11.440;2023-06-19T02:12:37;95388.53;;;20.60;46.28
70684;BME280;58263;48.146;11.440;2023-06-19T02:15:03;95390.16;;;20.62;46.90
70684;BME280;58263;48.146;11.440;2023-06-19T02:17:28;95383.38;;;20.59;46.61
70684;BME280;58263;48.146;11.440;2023-06-19T02:19:53;95388.13;;;20.53;47.46
70684;BME280;58263;48.146;11.440;2023-06-19T02:22:19;95388.00;;;20.58;46.92
70684;BME280;58263;48.146;11.440;2023-06-19T02:24:44;95385.59;;;20.57;47.24
70684;BME280;58263;48.146;11.440;2023-06-19T02:27:10;95379.84;;;20.58;47.89
70684;BME280;58263;48.146;11.440;2023-06-19T02:29:35;95387.69;;;20.60;48.03
70684;BME280;58263;48.146;11.440;2023-06-19T02:32:01;95388.91;;;20.68;47.77
70684;BME280;58263;48.146;11.440;2023-06-19T02:34:26;95381.66;;;20.63;47.91
70684;BME280;58263;48.146;11.440;2023-06-19T02:36:52;95380.84;;;20.63;47.88
70684;BME280;58263;48.146;11.440;2023-06-19T02:39:17;95381.97;;;20.62;48.04
70684;BME280;58263;48.146;11.440;2023-06-19T02:41:43;95382.47;;;20.64;48.26
70684;BME280;58263;48.146;11.440;2023-06-19T02:44:11;95386.59;;;20.61;48.37
70684;BME280;58263;48.146;11.440;2023-06-19T02:46:37;95392.34;;;20.59;48.25
70684;BME280;58263;48.146;11.440;2023-06-19T02:49:02;95393.38;;;20.64;48.10
70684;BME280;58263;48.146;11.440;2023-06-19T02:51:27;95394.78;;;20.61;48.73
70684;BME280;58263;48.146;11.440;2023-06-19T02:53:53;95385.28;;;20.58;49.21
70684;BME280;58263;48.146;11.440;2023-06-19T02:56:18;95400.03;;;20.57;49.43
70684;BME280;58263;48.146;11.440;2023-06-19T02:58:43;95385.81;;;20.60;50.33
70684;BME280;58263;48.146;11.440;2023-06-19T03:01:09;95394.97;;;20.65;49.85
70684;BME280;58263;48.146;11.440;2023-06-19T03:03:34;95392.56;;;20.63;50.41
70684;BME280;58263;48.146;11.440;2023-06-19T03:06:06;95396.09;;;20.64;51.10
70684;BME280;58263;48.146;11.440;2023-06-19T03:08:36;95387.53;;;20.56;51.61
70684;BME280;58263;48.146;11.440;2023-06-19T03:11:01;95391.13;;;20.52;52.19
70684;BME280;58263;48.146;11.440;2023-06-19T03:13:31;95393.75;;;20.57;51.16
70684;BME280;58263;48.146;11.440;2023-06-19T03:15:57;95398.59;;;20.60;50.87
70684;BME280;58263;48.146;11.440;2023-06-19T03:18:22;95409.31;;;20.56;50.92
70684;BME280;58263;48.146;11.440;2023-06-19T03:20:48;95412.03;;;20.56;50.80
70684;BME280;58263;48.146;11.440;2023-06-19T03:23:13;95417.97;;;20.58;50.69
70684;BME280;58263;48.146;11.440;2023-06-19T03:25:38;95410.72;;;20.54;50.91
70684;BME280;58263;48.146;11.440;2023-06-19T03:28:08;95409.50;;;20.60;50.24
70684;BME280;58263;48.146;11.440;2023-06-19T03:30:33;95415.56;;;20.57;50.53
70684;BME280;58263;48.146;11.440;2023-06-19T03:32:58;95415.38;;;20.53;50.22
70684;BME280;58263;48.146;11.440;2023-06-19T03:35:23;95421.09;;;20.52;49.88
70684;BME280;58263;48.146;11.440;2023-06-19T03:37:49;95424.34;;;20.54;49.87
70684;BME280;58263;48.146;11.440;2023-06-19T03:40:14;95428.88;;;20.58;49.62
70684;BME280;58263;48.146;11.440;2023-06-19T03:42:41;95430.91;;;20.53;49.81
70684;BME280;58263;48.146;11.440;2023-06-19T03:45:07;95439.38;;;20.51;50.26
70684;BME280;58263;48.146;11.440;2023-06-19T03:47:32;95437.97;;;20.54;50.22
70684;BME280;58263;48.146;11.440;2023-06-19T03:49:57;95445.84;;;20.55;50.08
70684;BME280;58263;48.146;11.440;2023-06-19T03:52:23;95446.47;;;20.52;50.74
70684;BME280;58263;48.146;11.440;2023-06-19T03:54:48;95455.25;;;20.49;51.13
70684;BME280;58263;48.146;11.440;2023-06-19T03:57:14;95445.94;;;20.50;50.63
70684;BME280;58263;48.146;11.440;2023-06-19T03:59:40;95457.97;;;20.49;51.57
70684;BME280;58263;48.146;11.440;2023-06-19T04:02:05;95456.13;;;20.44;51.18
70684;BME280;58263;48.146;11.440;2023-06-19T04:04:30;95465.63;;;20.47;51.58
70684;BME280;58263;48.146;11.440;2023-06-19T04:06:56;95466.22;;;20.44;51.98
70684;BME280;58263;48.146;11.440;2023-06-19T04:09:21;95464.81;;;20.47;52.19
70684;BME280;58263;48.146;11.440;2023-06-19T04:11:46;95467.56;;;20.47;52.28
70684;BME280;58263;48.146;11.440;2023-06-19T04:14:12;95464.00;;;20.46;52.51
70684;BME280;58263;48.146;11.440;2023-06-19T04:16:37;95467.84;;;20.45;52.51
70684;BME280;58263;48.146;11.440;2023-06-19T04:19:02;95473.31;;;20.45;53.12
70684;BME280;58263;48.146;11.440;2023-06-19T04:21:28;95471.06;;;20.47;52.95
70684;BME280;58263;48.146;11.440;2023-06-19T04:23:53;95474.50;;;20.53;52.90
70684;BME280;58263;48.146;11.440;2023-06-19T04:26:18;95480.78;;;20.53;53.07
70684;BME280;58263;48.146;11.440;2023-06-19T04:28:46;95483.19;;;20.55;53.66
70684;BME280;58263;48.146;11.440;2023-06-19T04:31:11;95482.75;;;20.48;54.06
70684;BME280;58263;48.146;11.440;2023-06-19T04:33:37;95480.72;;;20.39;54.31
70684;BME280;58263;48.146;11.440;2023-06-19T04:36:02;95492.47;;;20.40;54.24
70684;BME280;58263;48.146;11.440;2023-06-19T04:38:27;95483.38;;;20.44;54.27
70684;BME280;58263;48.146;11.440;2023-06-19T04:40:53;95493.47;;;20.44;54.86
70684;BME280;58263;48.146;11.440;2023-06-19T04:43:18;95507.59;;;20.46;54.46
70684;BME280;58263;48.146;11.440;2023-06-19T04:45:44;95516.91;;;20.45;53.62
70684;BME280;58263;48.146;11.440;2023-06-19T04:48:10;95514.75;;;20.42;54.56
70684;BME280;58263;48.146;11.440;2023-06-19T04:50:36;95509.75;;;20.49;54.25
70684;BME280;58263;48.146;11.440;2023-06-19T04:53:02;95527.38;;;20.52;54.00
70684;BME280;58263;48.146;11.440;2023-06-19T04:55:27;95532.63;;;20.48;54.32
70684;BME280;58263;48.146;11.440;2023-06-19T04:57:52;95527.69;;;20.50;53.74
70684;BME280;58263;48.146;11.440;2023-06-19T05:00:18;95522.16;;;20.55;53.72
70684;BME280;58263;48.146;11.440;2023-06-19T05:02:48;95535.16;;;20.58;53.62
70684;BME280;58263;48.146;11.440;2023-06-19T05:05:14;95528.84;;;20.63;53.64
70684;BME280;58263;48.146;11.440;2023-06-19T05:07:40;95539.94;;;20.67;53.26
70684;BME280;58263;48.146;11.440;2023-06-19T05:10:07;95537.75;;;20.69;54.26
70684;BME280;58263;48.146;11.440;2023-06-19T05:12:34;95539.94;;;20.67;54.64
70684;BME280;58263;48.146;11.440;2023-06-19T05:14:59;95542.59;;;20.72;54.28
70684;BME280;58263;48.146;11.440;2023-06-19T05:17:25;95543.63;;;20.76;53.98
70684;BME280;58263;48.146;11.440;2023-06-19T05:19:50;95541.59;;;20.82;53.83
70684;BME280;58263;48.146;11.440;2023-06-19T05:22:15;95544.03;;;20.83;53.39
70684;BME280;58263;48.146;11.440;2023-06-19T05:24:43;95546.97;;;20.87;52.43
70684;BME280;58263;48.146;11.440;2023-06-19T05:27:08;95544.16;;;20.92;52.28
70684;BME280;58263;48.146;11.440;2023-06-19T05:29:34;95547.88;;;20.96;52.10
70684;BME280;58263;48.146;11.440;2023-06-19T05:31:59;95547.50;;;21.03;51.71
70684;BME280;58263;48.146;11.440;2023-06-19T05:34:24;95551.72;;;21.09;51.28
70684;BME280;58263;48.146;11.440;2023-06-19T05:36:49;95547.19;;;21.18;50.89
70684;BME280;58263;48.146;11.440;2023-06-19T05:39:15;95550.72;;;21.33;50.65
70684;BME280;58263;48.146;11.440;2023-06-19T05:41:40;95563.66;;;21.41;50.13
70684;BME280;58263;48.146;11.440;2023-06-19T05:44:05;95563.03;;;21.44;50.27
70684;BME280;58263;48.146;11.440;2023-06-19T05:46:31;95565.28;;;21.56;49.79
70684;BME280;58263;48.146;11.440;2023-06-19T05:48:56;95561.63;;;21.60;49.72
70684;BME280;58263;48.146;11.440;2023-06-19T05:51:21;95567.69;;;21.71;49.65
70684;BME280;58263;48.146;11.440;2023-06-19T05:53:47;95564.53;;;21.78;49.48
70684;BME280;58263;48.146;11.440;2023-06-19T05:56:14;95570.88;;;21.87;49.19
70684;BME280;58263;48.146;11.440;2023-06-19T05:58:40;95573.69;;;21.96;49.08
70684;BME280;58263;48.146;11.440;2023-06-19T06:01:05;95567.19;;;22.06;48.80
70684;BME280;58263;48.146;11.440;2023-06-19T06:03:32;95574.03;;;22.17;48.59
70684;BME280;58263;48.146;11.440;2023-06-19T06:05:57;95574.53;;;22.19;48.25
70684;BME280;58263;48.146;11.440;2023-06-19T06:08:31;95581.88;;;22.33;48.08
70684;BME280;58263;48.146;11.440;2023-06-19T06:10:57;95581.66;;;22.43;48.17
70684;BME280;58263;48.146;11.440;2023-06-19T06:13:22;95580.75;;;22.56;47.65
70684;BME280;58263;48.146;11.440;2023-06-19T06:15:48;95582.78;;;22.65;47.08
70684;BME280;58263;48.146;11.440;2023-06-19T06:18:13;95591.56;;;22.84;46.94
70684;BME280;58263;48.146;11.440;2023-06-19T06:20:38;95586.13;;;22.93;46.57
70684;BME280;58263;48.146;11.440;2023-06-19T06:23:04;95597.75;;;23.21;45.93
70684;BME280;58263;48.146;11.440;2023-06-19T06:25:30;95596.06;;;23.43;45.89
70684;BME280;58263;48.146;11.440;2023-06-19T06:27:55;95599.31;;;23.62;45.20
70684;BME280;58263;48.146;11.440;2023-06-19T06:30:21;95599.56;;;23.84;44.67
70684;BME280;58263;48.146;11.440;2023-06-19T06:32:46;95606.22;;;24.09;43.98
70684;BME280;58263;48.146;11.440;2023-06-19T06:35:11;95614.78;;;24.25;43.97
70684;BME280;58263;48.146;11.440;2023-06-19T06:37:36;95622.22;;;24.42;43.26
70684;BME280;58263;48.146;11.440;2023-06-19T06:40:02;95616.69;;;24.59;43.24
70684;BME280;58263;48.146;11.440;2023-06-19T06:42:30;95616.88;;;24.72;43.09
70684;BME280;58263;48.146;11.440;2023-06-19T06:44:55;95624.44;;;24.84;42.61
70684;BME280;58263;48.146;11.440;2023-06-19T06:47:20;95624.94;;;24.77;41.75
70684;BME280;58263;48.146;11.440;2023-06-19T06:49:46;95626.25;;;24.88;42.31
70684;BME280;58263;48.146;11.440;2023-06-19T06:52:11;95624.13;;;24.94;42.14
70684;BME280;58263;48.146;11.440;2023-06-19T06:54:36;95632.63;;;25.10;41.95
70684;BME280;58263;48.146;11.440;2023-06-19T06:57:02;95639.59;;;24.98;41.90
70684;BME280;58263;48.146;11.440;2023-06-19T06:59:27;95629.88;;;25.10;42.05
70684;BME280;58263;48.146;11.440;2023-06-19T07:01:54;95640.97;;;25.31;42.01
70684;BME280;58263;48.146;11.440;2023-06-19T07:04:20;95641.91;;;25.44;41.95
70684;BME280;58263;48.146;11.440;2023-06-19T07:06:45;95641.06;;;25.52;42.06
70684;BME280;58263;48.146;11.440;2023-06-19T07:09:11;95636.03;;;25.63;41.49
70684;BME280;58263;48.146;11.440;2023-06-19T07:11:36;95639.19;;;25.74;41.37
70684;BME280;58263;48.146;11.440;2023-06-19T07:14:02;95645.22;;;25.97;40.68
70684;BME280;58263;48.146;11.440;2023-06-19T07:16:27;95643.50;;;26.22;40.55
70684;BME280;58263;48.146;11.440;2023-06-19T07:18:53;95639.25;;;26.46;40.71
70684;BME280;58263;48.146;11.440;2023-06-19T07:21:18;95638.66;;;26.61;39.87
70684;BME280;58263;48.146;11.440;2023-06-19T07:23:45;95640.53;;;26.91;39.45
70684;BME280;58263;48.146;11.440;2023-06-19T07:26:10;95642.75;;;27.10;39.27
70684;BME280;58263;48.146;11.440;2023-06-19T07:28:36;95642.09;;;27.25;39.56
70684;BME280;58263;48.146;11.440;2023-06-19T07:31:02;95640.31;;;27.42;38.32
70684;BME280;58263;48.146;11.440;2023-06-19T07:33:28;95638.28;;;27.51;38.17
70684;BME280;58263;48.146;11.440;2023-06-19T07:35:53;95642.53;;;27.48;37.68
70684;BME280;58263;48.146;11.440;2023-06-19T07:38:18;95649.47;;;27.33;37.74
70684;BME280;58263;48.146;11.440;2023-06-19T07:40:44;95650.13;;;27.18;38.02
70684;BME280;58263;48.146;11.440;2023-06-19T07:43:09;95655.13;;;27.04;37.81
70684;BME280;58263;48.146;11.440;2023-06-19T07:45:35;95652.72;;;27.02;38.14
70684;BME280;58263;48.146;11.440;2023-06-19T07:48:00;95644.09;;;27.04;38.19
70684;BME280;58263;48.146;11.440;2023-06-19T07:50:25;95647.53;;;27.34;38.16
70684;BME280;58263;48.146;11.440;2023-06-19T07:52:51;95646.09;;;27.61;37.83
70684;BME280;58263;48.146;11.440;2023-06-19T07:55:16;95642.66;;;27.89;38.13
70684;BME280;58263;48.146;11.440;2023-06-19T07:57:42;95660.03;;;28.14;36.66
70684;BME280;58263;48.146;11.440;2023-06-19T08:00:07;95656.13;;;28.28;35.92
70684;BME280;58263;48.146;11.440;2023-06-19T08:02:36;95663.91;;;28.26;36.49
70684;BME280;58263;48.146;11.440;2023-06-19T08:05:02;95655.72;;;28.54;36.23
70684;BME280;58263;48.146;11.440;2023-06-19T08:07:28;95654.50;;;28.80;36.38
70684;BME280;58263;48.146;11.440;2023-06-19T08:09:53;95661.91;;;29.04;35.30
70684;BME280;58263;48.146;11.440;2023-06-19T08:12:18;95663.06;;;29.31;35.39
70684;BME280;58263;48.146;11.440;2023-06-19T08:14:44;95663.69;;;29.57;34.88
70684;BME280;58263;48.146;11.440;2023-06-19T08:17:09;95665.31;;;29.74;34.33
70684;BME280;58263;48.146;11.440;2023-06-19T08:19:34;95657.00;;;30.06;34.02
70684;BME280;58263;48.146;11.440;2023-06-19T08:22:00;95653.13;;;30.26;33.56
70684;BME280;58263;48.146;11.440;2023-06-19T08:24:25;95662.47;;;30.38;33.16
70684;BME280;58263;48.146;11.440;2023-06-19T08:26:50;95646.66;;;30.74;33.21
70684;BME280;58263;48.146;11.440;2023-06-19T08:29:17;95661.69;;;31.12;32.65
70684;BME280;58263;48.146;11.440;2023-06-19T08:31:43;95658.88;;;31.31;32.50
70684;BME280;58263;48.146;11.440;2023-06-19T08:34:09;95659.00;;;31.39;32.26
70684;BME280;58263;48.146;11.440;2023-06-19T08:36:35;95652.19;;;31.56;31.61
70684;BME280;58263;48.146;11.440;2023-06-19T08:39:01;95638.41;;;31.82;31.49
70684;BME280;58263;48.146;11.440;2023-06-19T08:41:26;95636.50;;;32.13;29.40
70684;BME280;58263;48.146;11.440;2023-06-19T08:43:52;95643.16;;;32.32;29.45
70684;BME280;58263;48.146;11.440;2023-06-19T08:46:18;95637.38;;;32.75;29.20
70684;BME280;58263;48.146;11.440;2023-06-19T08:48:44;95649.19;;;32.98;28.15
70684;BME280;58263;48.146;11.440;2023-06-19T08:51:11;95643.03;;;33.53;27.66
70684;BME280;58263;48.146;11.440;2023-06-19T08:53:48;95639.28;;;33.76;27.53
70684;BME280;58263;48.146;11.440;2023-06-19T08:56:16;95625.56;;;33.53;27.33
70684;BME280;58263;48.146;11.440;2023-06-19T08:58:42;95635.09;;;33.52;27.53
70684;BME280;58263;48.146;11.440;2023-06-19T09:01:07;95628.66;;;33.44;27.13
70684;BME280;58263;48.146;11.440;2023-06-19T09:03:32;95627.50;;;33.49;27.92
70684;BME280;58263;48.146;11.440;2023-06-19T09:06:08;95632.34;;;33.18;27.52
70684;BME280;58263;48.146;11.440;2023-06-19T09:08:34;95634.59;;;33.09;28.19
70684;BME280;58263;48.146;11.440;2023-06-19T09:11:01;95632.00;;;32.89;28.81
70684;BME280;58263;48.146;11.440;2023-06-19T09:13:28;95627.25;;;32.90;28.67
70684;BME280;58263;48.146;11.440;2023-06-19T09:16:07;95623.50;;;32.75;29.52
70684;BME280;58263;48.146;11.440;2023-06-19T09:18:44;95630.13;;;32.66;29.63
70684;BME280;58263;48.146;11.440;2023-06-19T09:21:17;95635.91;;;32.54;29.62
70684;BME280;58263;48.146;11.440;2023-06-19T09:23:48;95638.91;;;32.42;29.88
70684;BME280;58263;48.146;11.440;2023-06-19T09:26:17;95636.91;;;32.39;30.63
70684;BME280;58263;48.146;11.440;2023-06-19T09:28:44;95636.69;;;32.24;30.42
70684;BME280;58263;48.146;11.440;2023-06-19T09:31:10;95629.66;;;32.30;30.73
70684;BME280;58263;48.146;11.440;2023-06-19T09:33:36;95632.66;;;32.18;31.13
70684;BME280;58263;48.146;11.440;2023-06-19T09:36:04;95626.66;;;32.46;30.17
70684;BME280;58263;48.146;11.440;2023-06-19T09:38:31;95631.44;;;32.76;30.07
70684;BME280;58263;48.146;11.440;2023-06-19T09:40:58;95631.88;;;32.78;29.85
70684;BME280;58263;48.146;11.440;2023-06-19T09:43:33;95627.88;;;33.10;29.73
70684;BME280;58263;48.146;11.440;2023-06-19T09:45:59;95624.66;;;33.42;28.50
70684;BME280;58263;48.146;11.440;2023-06-19T09:48:29;95629.63;;;33.63;29.89
70684;BME280;58263;48.146;11.440;2023-06-19T09:51:03;95627.25;;;33.65;27.90
70684;BME280;58263;48.146;11.440;2023-06-19T09:53:29;95614.03;;;33.99;28.79
70684;BME280;58263;48.146;11.440;2023-06-19T09:55:55;95619.88;;;34.39;27.93
70684;BME280;58263;48.146;11.440;2023-06-19T09:58:21;95616.81;;;34.62;26.81
70684;BME280;58263;48.146;11.440;2023-06-19T10:00:47;95610.66;;;35.16;26.93
70684;BME280;58263;48.146;11.440;2023-06-19T10:03:14;95607.56;;;35.50;26.67
70684;BME280;58263;48.146;11.440;2023-06-19T10:05:42;95607.97;;;35.59;25.63
70684;BME280;58263;48.146;11.440;2023-06-19T10:08:07;95607.59;;;35.93;25.24
70684;BME280;58263;48.146;11.440;2023-06-19T10:10:33;95604.75;;;36.18;25.44
70684;BME280;58263;48.146;11.440;2023-06-19T10:13:21;95600.75;;;36.41;25.04
70684;BME280;58263;48.146;11.440;2023-06-19T10:15:45;95604.31;;;36.49;24.50
70684;BME280;58263;48.146;11.440;2023-06-19T10:18:14;95601.78;;;36.80;23.72
70684;BME280;58263;48.146;11.440;2023-06-19T10:20:45;95605.75;;;36.97;23.51
70684;BME280;58263;48.146;11.440;2023-06-19T10:23:13;95603.41;;;37.55;22.94
70684;BME280;58263;48.146;11.440;2023-06-19T10:25:44;95606.84;;;37.81;22.02
70684;BME280;58263;48.146;11.440;2023-06-19T10:28:23;95607.03;;;38.04;21.91
70684;BME280;58263;48.146;11.440;2023-06-19T10:31:09;95600.34;;;37.91;21.07
70684;BME280;58263;48.146;11.440;2023-06-19T10:33:36;95593.13;;;38.74;21.18
70684;BME280;58263;48.146;11.440;2023-06-19T10:36:22;95597.47;;;39.09;20.75
70684;BME280;58263;48.146;11.440;2023-06-19T10:38:48;95595.97;;;39.59;19.43
70684;BME280;58263;48.146;11.440;2023-06-19T10:41:22;95593.25;;;41.27;18.43
70684;BME280;58263;48.146;11.440;2023-06-19T10:43:59;95599.66;;;42.89;16.56
70684;BME280;58263;48.146;11.440;2023-06-19T10:46:28;95596.19;;;44.14;16.09
70684;BME280;58263;48.146;11.440;2023-06-19T10:48:55;95589.06;;;44.57;16.00
70684;BME280;58263;48.146;11.440;2023-06-19T10:51:26;95585.31;;;45.36;15.58
70684;BME280;58263;48.146;11.440;2023-06-19T10:53:54;95582.59;;;46.14;14.66
70684;BME280;58263;48.146;11.440;2023-06-19T10:56:20;95587.47;;;46.97;13.89
70684;BME280;58263;48.146;11.440;2023-06-19T10:58:46;95579.94;;;46.84;14.03
70684;BME280;58263;48.146;11.440;2023-06-19T11:01:11;95582.94;;;47.85;13.07
70684;BME280;58263;48.146;11.440;2023-06-19T11:03:37;95577.31;;;48.24;12.67
70684;BME280;58263;48.146;11.440;2023-06-19T11:06:02;95573.88;;;47.62;13.82
70684;BME280;58263;48.146;11.440;2023-06-19T11:08:28;95582.41;;;47.62;13.52
70684;BME280;58263;48.146;11.440;2023-06-19T11:10:55;95571.94;;;47.26;12.90
70684;BME280;58263;48.146;11.440;2023-06-19T11:13:20;95582.34;;;48.68;12.62
70684;BME280;58263;48.146;11.440;2023-06-19T11:15:49;95573.94;;;48.89;12.56
70684;BME280;58263;48.146;11.440;2023-06-19T11:18:16;95569.34;;;49.36;11.97
70684;BME280;58263;48.146;11.440;2023-06-19T11:20:46;95557.22;;;49.42;12.00
70684;BME280;58263;48.146;11.440;2023-06-19T11:23:13;95558.88;;;49.48;11.99
70684;BME280;58263;48.146;11.440;2023-06-19T11:25:40;95560.00;;;50.48;11.51
70684;BME280;58263;48.146;11.440;2023-06-19T11:28:13;95559.91;;;50.63;10.98
70684;BME280;58263;48.146;11.440;2023-06-19T11:30:39;95553.16;;;49.84;11.41
70684;BME280;58263;48.146;11.440;2023-06-19T11:33:18;95554.13;;;49.96;11.25
70684;BME280;58263;48.146;11.440;2023-06-19T11:35:50;95553.78;;;50.29;10.81
70684;BME280;58263;48.146;11.440;2023-06-19T11:38:18;95555.13;;;49.93;10.73
70684;BME280;58263;48.146;11.440;2023-06-19T11:40:43;95552.59;;;49.44;11.28
70684;BME280;58263;48.146;11.440;2023-06-19T11:43:10;95547.88;;;50.33;10.65
70684;BME280;58263;48.146;11.440;2023-06-19T11:45:48;95560.03;;;50.75;10.38
70684;BME280;58263;48.146;11.440;2023-06-19T11:48:21;95544.00;;;51.09;10.20
70684;BME280;58263;48.146;11.440;2023-06-19T11:50:47;95549.31;;;52.69;9.77
70684;BME280;58263;48.146;11.440;2023-06-19T11:53:12;95544.94;;;53.30;9.19
70684;BME280;58263;48.146;11.440;2023-06-19T11:55:38;95538.41;;;53.01;9.13
70684;BME280;58263;48.146;11.440;2023-06-19T11:58:03;95544.13;;;52.73;9.09
70684;BME280;58263;48.146;11.440;2023-06-19T12:00:29;95545.13;;;51.93;9.64
70684;BME280;58263;48.146;11.440;2023-06-19T12:02:54;95538.75;;;52.15;9.14
70684;BME280;58263;48.146;11.440;2023-06-19T12:05:22;95542.91;;;52.25;9.72
70684;BME280;58263;48.146;11.440;2023-06-19T12:07:47;95534.47;;;51.55;9.67
70684;BME280;58263;48.146;11.440;2023-06-19T12:10:12;95534.41;;;52.42;9.38
70684;BME280;58263;48.146;11.440;2023-06-19T12:12:38;95537.91;;;51.65;9.76
70684;BME280;58263;48.146;11.440;2023-06-19T12:15:04;95534.78;;;51.63;9.78
70684;BME280;58263;48.146;11.440;2023-06-19T12:17:30;95540.41;;;51.89;9.86
70684;BME280;58263;48.146;11.440;2023-06-19T12:19:58;95538.34;;;50.88;10.09
70684;BME280;58263;48.146;11.440;2023-06-19T12:22:27;95528.69;;;50.13;10.60
70684;BME280;58263;48.146;11.440;2023-06-19T12:24:53;95515.69;;;48.75;11.44
70684;BME280;58263;48.146;11.440;2023-06-19T12:27:18;95513.22;;;48.53;11.57
70684;BME280;58263;48.146;11.440;2023-06-19T12:29:43;95518.59;;;48.12;12.38
70684;BME280;58263;48.146;11.440;2023-06-19T12:32:09;95506.31;;;47.57;12.85
70684;BME280;58263;48.146;11.440;2023-06-19T12:34:34;95500.44;;;47.27;12.72
70684;BME280;58263;48.146;11.440;2023-06-19T12:36:59;95493.34;;;49.33;11.33
70684;BME280;58263;48.146;11.440;2023-06-19T12:39:24;95496.72;;;50.82;10.26
70684;BME280;58263;48.146;11.440;2023-06-19T12:41:51;95504.66;;;51.30;10.21
70684;BME280;58263;48.146;11.440;2023-06-19T12:44:16;95498.34;;;50.36;10.70
70684;BME280;58263;48.146;11.440;2023-06-19T12:46:42;95497.38;;;50.45;10.50